sensor_id;sensor_type;location;lat;lon;timestamp;temperature;humidity
53310;DHT22;39197;53.200;5.792;2023-09-18T00:00:22;16.50;99.90
53310;DHT22;39197;53.200;5.792;2023-09-18T00:02:48;16.50;99.90
53310;DHT22;39197;53.200;5.792;2023-09-18T00:05:14;16.50;99.90
53310;DHT22;39197;53.200;5.792;2023-09-18T00:07:44;16.50;99.90
53310;DHT22;39197;53.200;5.792;2023-09-18T00:10:10;16.60;99.90
53310;DHT22;39197;53.200;5.792;2023-09-18T00:12:36;16.60;99.90
53310;DHT22;39197;53.200;5.792;2023-09-18T00:15:02;16.60;99.90
53310;DHT22;39197;53.200;5.792;2023-09-18T00:17:28;16.60;99.90
53310;DHT22;39197;53.200;5.792;2023-09-18T00:19:53;16.60;99.90
53310;DHT22;39197;53.200;5.792;2023-09-18T00:22:19;16.60;99.90
53310;DHT22;39197;53.200;5.792;2023-09-18T00:24:46;16.60;99.90
53310;DHT22;39197;53.200;5.792;2023-09-18T00:27:12;16.50;99.90
53310;DHT22;39197;53.200;5.792;2023-09-18T00:29:39;16.50;99.90
53310;DHT22;39197;53.200;5.792;2023-09-18T00:32:06;16.50;99.90
53310;DHT22;39197;53.200;5.792;2023-09-18T00:34:31;16.50;99.90
53310;DHT22;39197;53.200;5.792;2023-09-18T00:36:57;16.50;99.90
53310;DHT22;39197;53.200;5.792;2023-09-18T00:39:25;16.50;99.90
53310;DHT22;39197;53.200;5.792;2023-09-18T00:41:50;16.40;99.90
53310;DHT22;39197;53.200;5.792;2023-09-18T00:44:20;16.50;99.90
53310;DHT22;39197;53.200;5.792;2023-09-18T00:46:46;16.50;99.90
53310;DHT22;39197;53.200;5.792;2023-09-18T00:49:11;16.40;99.90
53310;DHT22;39197;53.200;5.792;2023-09-18T00:51:38;16.40;99.90
53310;DHT22;39197;53.200;5.792;2023-09-18T00:54:04;16.40;99.90
53310;DHT22;39197;53.200;5.792;2023-09-18T00:56:29;16.50;99.90
53310;DHT22;39197;53.200;5.792;2023-09-18T00:58:55;16.40;99.90
53310;DHT22;39197;53.200;5.792;2023-09-18T01:01:20;16.40;99.90
53310;DHT22;39197;53.200;5.792;2023-09-18T01:03:51;16.40;99.90
53310;DHT22;39197;53.200;5.792;2023-09-18T01:06:19;16.40;99.90
53310;DHT22;39197;53.200;5.792;2023-09-18T01:08:47;16.40;99.90
53310;DHT22;39197;53.200;5.792;2023-09-18T01:11:34;16.40;99.90
53310;DHT22;39197;53.200;5.792;2023-09-18T01:16:36;16.40;99.90
53310;DHT22;39197;53.200;5.792;2023-09-18T01:19:04;16.50;99.90
53310;DHT22;39197;53.200;5.792;2023-09-18T01:21:30;16.50;99.90
53310;DHT22;39197;53.200;5.792;2023-09-18T01:23:56;16.50;99.90
53310;DHT22;39197;53.200;5.792;2023-09-18T01:26:21;16.50;99.90
53310;DHT22;39197;53.200;5.792;2023-09-18T01:28:47;16.50;99.90
53310;DHT22;39197;53.200;5.792;2023-09-18T01:31:12;16.50;99.90
53310;DHT22;39197;53.200;5.792;2023-09-18T01:33:38;16.60;99.90
53310;DHT22;39197;53.200;5.792;2023-09-18T01:36:07;16.50;99.90
53310;DHT22;39197;53.200;5.792;2023-09-18T01:38:34;16.60;99.90
53310;DHT22;39197;53.200;5.792;2023-09-18T01:41:01;16.60;99.90
53310;DHT22;39197;53.200;5.792;2023-09-18T01:43:27;16.60;99.90
53310;DHT22;39197;53.200;5.792;2023-09-18T01:45:52;16.60;99.90
53310;DHT22;39197;53.200;5.792;2023-09-18T01:48:18;16.60;99.90
53310;DHT22;39197;53.200;5.792;2023-09-18T01:50:44;16.60;99.90
53310;DHT22;39197;53.200;5.792;2023-09-18T01:53:09;16.60;99.90
53310;DHT22;39197;53.200;5.792;2023-09-18T01:55:35;16.60;99.90
53310;DHT22;39197;53.200;5.792;2023-09-18T01:58:01;16.60;99.90
53310;DHT22;39197;53.200;5.792;2023-09-18T02:00:26;16.60;99.90
53310;DHT22;39197;53.200;5.792;2023-09-18T02:02:52;16.60;99.90
53310;DHT22;39197;53.200;5.792;2023-09-18T02:05:17;16.60;99.90
53310;DHT22;39197;53.200;5.792;2023-09-18T02:07:43;16.60;99.90
53310;DHT22;39197;53.200;5.792;2023-09-18T02:10:09;16.60;99.90
53310;DHT22;39197;53.200;5.792;2023-09-18T02:12:34;16.60;99.90
53310;DHT22;39197;53.200;5.792;2023-09-18T02:15:00;16.60;99.90
53310;DHT22;39197;53.200;5.792;2023-09-18T02:17:30;16.60;99.90
53310;DHT22;39197;53.200;5.792;2023-09-18T02:19:55;16.60;99.90
53310;DHT22;39197;53.200;5.792;2023-09-18T02:22:21;16.60;99.90
53310;DHT22;39197;53.200;5.792;2023-09-18T02:24:47;16.70;99.90
53310;DHT22;39197;53.200;5.792;2023-09-18T02:27:12;16.70;99.90
53310;DHT22;39197;53.200;5.792;2023-09-18T02:29:38;16.70;99.90
53310;DHT22;39197;53.200;5.792;2023-09-18T02:32:03;16.80;99.90
53310;DHT22;39197;53.200;5.792;2023-09-18T02:34:29;16.80;99.90
53310;DHT22;39197;53.200;5.792;2023-09-18T02:36:55;16.70;99.90
53310;DHT22;39197;53.200;5.792;2023-09-18T02:39:20;16.80;99.90
53310;DHT22;39197;53.200;5.792;2023-09-18T02:41:46;16.80;99.90
53310;DHT22;39197;53.200;5.792;2023-09-18T02:44:12;16.80;99.90
53310;DHT22;39197;53.200;5.792;2023-09-18T02:46:38;16.80;99.90
53310;DHT22;39197;53.200;5.792;2023-09-18T02:49:04;16.90;99.90
53310;DHT22;39197;53.200;5.792;2023-09-18T02:51:29;16.90;99.90
53310;DHT22;39197;53.200;5.792;2023-09-18T02:53:57;16.90;99.90
53310;DHT22;39197;53.200;5.792;2023-09-18T02:56:22;17.00;99.90
53310;DHT22;39197;53.200;5.792;2023-09-18T02:58:48;16.90;99.90
53310;DHT22;39197;53.200;5.792;2023-09-18T03:01:14;16.90;99.90
53310;DHT22;39197;53.200;5.792;2023-09-18T03:03:39;16.90;99.90
53310;DHT22;39197;53.200;5.792;2023-09-18T03:06:07;17.00;99.90
53310;DHT22;39197;53.200;5.792;2023-09-18T03:08:33;17.00;99.90
53310;DHT22;39197;53.200;5.792;2023-09-18T03:10:59;17.00;99.90
53310;DHT22;39197;53.200;5.792;2023-09-18T03:13:27;17.00;99.90
53310;DHT22;39197;53.200;5.792;2023-09-18T03:15:53;17.00;99.90
53310;DHT22;39197;53.200;5.792;2023-09-18T03:18:19;17.00;99.90
53310;DHT22;39197;53.200;5.792;2023-09-18T03:20:44;17.00;99.90
53310;DHT22;39197;53.200;5.792;2023-09-18T03:23:10;17.10;99.90
53310;DHT22;39197;53.200;5.792;2023-09-18T03:25:36;17.10;99.90
53310;DHT22;39197;53.200;5.792;2023-09-18T03:28:05;17.10;99.90
53310;DHT22;39197;53.200;5.792;2023-09-18T03:30:31;17.10;99.90
53310;DHT22;39197;53.200;5.792;2023-09-18T03:32:56;17.10;99.90
53310;DHT22;39197;53.200;5.792;2023-09-18T03:35:22;17.20;99.90
53310;DHT22;39197;53.200;5.792;2023-09-18T03:37:52;17.20;99.90
53310;DHT22;39197;53.200;5.792;2023-09-18T03:40:19;17.20;99.90
53310;DHT22;39197;53.200;5.792;2023-09-18T03:42:46;17.20;99.90
53310;DHT22;39197;53.200;5.792;2023-09-18T03:45:12;17.20;99.90
53310;DHT22;39197;53.200;5.792;2023-09-18T03:47:41;17.20;99.90
53310;DHT22;39197;53.200;5.792;2023-09-18T03:50:11;17.20;99.90
53310;DHT22;39197;53.200;5.792;2023-09-18T03:52:37;17.20;99.90
53310;DHT22;39197;53.200;5.792;2023-09-18T03:55:04;17.20;99.90
53310;DHT22;39197;53.200;5.792;2023-09-18T03:57:30;17.20;99.90
53310;DHT22;39197;53.200;5.792;2023-09-18T03:59:55;17.20;99.90
53310;DHT22;39197;53.200;5.792;2023-09-18T04:02:23;17.30;99.90
53310;DHT22;39197;53.200;5.792;2023-09-18T04:04:49;17.20;99.90
53310;DHT22;39197;53.200;5.792;2023-09-18T04:07:14;17.30;99.90
53310;DHT22;39197;53.200;5.792;2023-09-18T04:09:42;17.20;99.90
53310;DHT22;39197;53.200;5.792;2023-09-18T04:12:07;17.20;99.90
53310;DHT22;39197;53.200;5.792;2023-09-18T04:14:33;17.20;99.90
53310;DHT22;39197;53.200;5.792;2023-09-18T04:16:59;17.30;99.90
53310;DHT22;39197;53.200;5.792;2023-09-18T04:19:26;17.30;99.90
53310;DHT22;39197;53.200;5.792;2023-09-18T04:21:52;17.30;99.90
53310;DHT22;39197;53.200;5.792;2023-09-18T04:24:17;17.30;99.90
53310;DHT22;39197;53.200;5.792;2023-09-18T04:26:43;17.40;99.90
53310;DHT22;39197;53.200;5.792;2023-09-18T04:29:09;17.40;99.90
53310;DHT22;39197;53.200;5.792;2023-09-18T04:31:34;17.30;99.90
53310;DHT22;39197;53.200;5.792;2023-09-18T04:34:00;17.40;99.90
53310;DHT22;39197;53.200;5.792;2023-09-18T04:36:25;17.40;99.90
53310;DHT22;39197;53.200;5.792;2023-09-18T04:38:51;17.40;99.90
53310;DHT22;39197;53.200;5.792;2023-09-18T04:41:17;17.40;99.90
53310;DHT22;39197;53.200;5.792;2023-09-18T04:43:42;17.50;99.90
53310;DHT22;39197;53.200;5.792;2023-09-18T04:46:08;17.50;99.90
53310;DHT22;39197;53.200;5.792;2023-09-18T04:48:34;17.50;99.90
53310;DHT22;39197;53.200;5.792;2023-09-18T04:51:00;17.50;99.90
53310;DHT22;39197;53.200;5.792;2023-09-18T04:53:30;17.60;99.90
53310;DHT22;39197;53.200;5.792;2023-09-18T04:55:56;17.60;99.90
53310;DHT22;39197;53.200;5.792;2023-09-18T04:58:22;17.60;99.90
53310;DHT22;39197;53.200;5.792;2023-09-18T05:00:54;17.60;99.90
53310;DHT22;39197;53.200;5.792;2023-09-18T05:03:20;17.70;99.90
53310;DHT22;39197;53.200;5.792;2023-09-18T05:05:46;17.70;99.90
53310;DHT22;39197;53.200;5.792;2023-09-18T05:08:12;17.80;99.90
53310;DHT22;39197;53.200;5.792;2023-09-18T05:10:38;17.80;99.90
53310;DHT22;39197;53.200;5.792;2023-09-18T05:13:03;17.90;99.90
53310;DHT22;39197;53.200;5.792;2023-09-18T05:15:29;17.90;99.90
53310;DHT22;39197;53.200;5.792;2023-09-18T05:17:56;18.00;99.90
53310;DHT22;39197;53.200;5.792;2023-09-18T05:20:24;18.00;99.90
53310;DHT22;39197;53.200;5.792;2023-09-18T05:22:51;18.00;99.90
53310;DHT22;39197;53.200;5.792;2023-09-18T05:25:21;18.10;99.90
53310;DHT22;39197;53.200;5.792;2023-09-18T05:27:48;18.10;99.90
53310;DHT22;39197;53.200;5.792;2023-09-18T05:30:17;18.10;99.90
53310;DHT22;39197;53.200;5.792;2023-09-18T05:32:43;18.20;99.90
53310;DHT22;39197;53.200;5.792;2023-09-18T05:35:11;18.20;99.90
53310;DHT22;39197;53.200;5.792;2023-09-18T05:37:38;18.10;99.90
53310;DHT22;39197;53.200;5.792;2023-09-18T05:40:08;18.10;99.90
53310;DHT22;39197;53.200;5.792;2023-09-18T05:42:38;18.10;99.90
53310;DHT22;39197;53.200;5.792;2023-09-18T05:45:04;18.00;99.90
53310;DHT22;39197;53.200;5.792;2023-09-18T05:47:33;18.00;99.90
53310;DHT22;39197;53.200;5.792;2023-09-18T05:50:07;18.00;99.90
53310;DHT22;39197;53.200;5.792;2023-09-18T05:52:33;18.00;99.90
53310;DHT22;39197;53.200;5.792;2023-09-18T05:55:03;18.00;99.90
53310;DHT22;39197;53.200;5.792;2023-09-18T05:57:28;18.00;99.90
53310;DHT22;39197;53.200;5.792;2023-09-18T05:59:57;18.10;99.90
53310;DHT22;39197;53.200;5.792;2023-09-18T06:02:23;18.20;99.90
53310;DHT22;39197;53.200;5.792;2023-09-18T06:04:58;18.30;99.90
53310;DHT22;39197;53.200;5.792;2023-09-18T06:07:26;18.30;99.90
53310;DHT22;39197;53.200;5.792;2023-09-18T06:09:52;18.40;99.90
53310;DHT22;39197;53.200;5.792;2023-09-18T06:12:18;18.40;99.90
53310;DHT22;39197;53.200;5.792;2023-09-18T06:14:44;18.50;99.90
53310;DHT22;39197;53.200;5.792;2023-09-18T06:17:10;18.50;99.90
53310;DHT22;39197;53.200;5.792;2023-09-18T06:19:36;18.60;99.90
53310;DHT22;39197;53.200;5.792;2023-09-18T06:22:02;18.60;99.90
53310;DHT22;39197;53.200;5.792;2023-09-18T06:24:28;18.60;99.90
53310;DHT22;39197;53.200;5.792;2023-09-18T06:26:53;18.60;99.90
53310;DHT22;39197;53.200;5.792;2023-09-18T06:29:19;18.60;99.90
53310;DHT22;39197;53.200;5.792;2023-09-18T06:31:45;18.70;99.90
53310;DHT22;39197;53.200;5.792;2023-09-18T06:34:11;18.70;99.90
53310;DHT22;39197;53.200;5.792;2023-09-18T06:36:37;18.70;99.90
53310;DHT22;39197;53.200;5.792;2023-09-18T06:39:03;18.70;99.90
53310;DHT22;39197;53.200;5.792;2023-09-18T06:41:29;18.70;99.90
53310;DHT22;39197;53.200;5.792;2023-09-18T06:43:54;18.60;99.90
53310;DHT22;39197;53.200;5.792;2023-09-18T06:46:20;18.40;99.90
53310;DHT22;39197;53.200;5.792;2023-09-18T06:48:45;18.20;99.90
53310;DHT22;39197;53.200;5.792;2023-09-18T06:51:15;18.20;99.90
53310;DHT22;39197;53.200;5.792;2023-09-18T06:53:41;18.20;99.90
53310;DHT22;39197;53.200;5.792;2023-09-18T06:56:06;18.10;99.90
53310;DHT22;39197;53.200;5.792;2023-09-18T06:58:34;18.10;99.90
53310;DHT22;39197;53.200;5.792;2023-09-18T07:01:00;18.10;99.90
53310;DHT22;39197;53.200;5.792;2023-09-18T07:03:25;18.00;99.90
53310;DHT22;39197;53.200;5.792;2023-09-18T07:05:51;17.90;99.90
53310;DHT22;39197;53.200;5.792;2023-09-18T07:08:17;17.90;99.90
53310;DHT22;39197;53.200;5.792;2023-09-18T07:10:45;17.90;99.90
53310;DHT22;39197;53.200;5.792;2023-09-18T07:13:10;17.80;99.90
53310;DHT22;39197;53.200;5.792;2023-09-18T07:15:37;17.80;99.90
53310;DHT22;39197;53.200;5.792;2023-09-18T07:18:03;17.90;99.90
53310;DHT22;39197;53.200;5.792;2023-09-18T07:20:29;17.90;99.90
53310;DHT22;39197;53.200;5.792;2023-09-18T07:22:56;17.90;99.90
53310;DHT22;39197;53.200;5.792;2023-09-18T07:25:22;17.90;99.90
53310;DHT22;39197;53.200;5.792;2023-09-18T07:27:47;17.80;99.90
53310;DHT22;39197;53.200;5.792;2023-09-18T07:30:14;17.90;99.90
53310;DHT22;39197;53.200;5.792;2023-09-18T07:32:45;17.80;99.90
53310;DHT22;39197;53.200;5.792;2023-09-18T07:35:11;17.90;99.90
53310;DHT22;39197;53.200;5.792;2023-09-18T07:37:37;17.80;99.90
53310;DHT22;39197;53.200;5.792;2023-09-18T07:40:04;17.80;99.90
53310;DHT22;39197;53.200;5.792;2023-09-18T07:42:30;17.80;99.90
53310;DHT22;39197;53.200;5.792;2023-09-18T07:44:56;17.80;99.90
53310;DHT22;39197;53.200;5.792;2023-09-18T07:47:22;17.80;99.90
53310;DHT22;39197;53.200;5.792;2023-09-18T07:49:48;17.90;99.90
53310;DHT22;39197;53.200;5.792;2023-09-18T07:52:14;17.80;99.90
53310;DHT22;39197;53.200;5.792;2023-09-18T07:54:40;17.90;99.90
53310;DHT22;39197;53.200;5.792;2023-09-18T07:57:06;17.90;99.90
53310;DHT22;39197;53.200;5.792;2023-09-18T07:59:38;17.90;99.90
53310;DHT22;39197;53.200;5.792;2023-09-18T08:02:07;17.90;99.90
53310;DHT22;39197;53.200;5.792;2023-09-18T08:04:35;17.90;99.90
53310;DHT22;39197;53.200;5.792;2023-09-18T08:07:00;17.90;99.90
53310;DHT22;39197;53.200;5.792;2023-09-18T08:09:26;17.90;99.90
53310;DHT22;39197;53.200;5.792;2023-09-18T08:11:55;17.90;99.90
53310;DHT22;39197;53.200;5.792;2023-09-18T08:14:22;17.90;99.90
53310;DHT22;39197;53.200;5.792;2023-09-18T08:16:47;17.90;99.90
53310;DHT22;39197;53.200;5.792;2023-09-18T08:19:16;17.90;99.90
53310;DHT22;39197;53.200;5.792;2023-09-18T08:21:45;18.00;99.90
53310;DHT22;39197;53.200;5.792;2023-09-18T08:24:11;18.00;99.90
53310;DHT22;39197;53.200;5.792;2023-09-18T08:26:37;18.00;99.90
53310;DHT22;39197;53.200;5.792;2023-09-18T08:29:03;18.00;99.90
53310;DHT22;39197;53.200;5.792;2023-09-18T08:31:29;18.10;99.90
53310;DHT22;39197;53.200;5.792;2023-09-18T08:33:57;18.10;99.90
53310;DHT22;39197;53.200;5.792;2023-09-18T08:36:22;18.10;99.90
53310;DHT22;39197;53.200;5.792;2023-09-18T08:38:48;18.20;99.90
53310;DHT22;39197;53.200;5.792;2023-09-18T08:41:14;18.20;99.90
53310;DHT22;39197;53.200;5.792;2023-09-18T08:43:43;18.20;99.90
53310;DHT22;39197;53.200;5.792;2023-09-18T08:46:09;18.30;99.90
53310;DHT22;39197;53.200;5.792;2023-09-18T08:48:35;18.30;99.90
53310;DHT22;39197;53.200;5.792;2023-09-18T08:51:03;18.40;99.90
53310;DHT22;39197;53.200;5.792;2023-09-18T08:53:35;18.40;99.90
53310;DHT22;39197;53.200;5.792;2023-09-18T08:56:02;18.50;99.90
53310;DHT22;39197;53.200;5.792;2023-09-18T08:58:31;18.60;99.90
53310;DHT22;39197;53.200;5.792;2023-09-18T09:00:57;18.70;99.90
53310;DHT22;39197;53.200;5.792;2023-09-18T09:03:23;18.70;99.90
53310;DHT22;39197;53.200;5.792;2023-09-18T09:05:49;18.80;99.90
53310;DHT22;39197;53.200;5.792;2023-09-18T09:08:15;18.90;99.90
53310;DHT22;39197;53.200;5.792;2023-09-18T09:10:41;18.90;99.90
53310;DHT22;39197;53.200;5.792;2023-09-18T09:13:08;18.90;99.90
53310;DHT22;39197;53.200;5.792;2023-09-18T09:15:43;19.00;99.90
53310;DHT22;39197;53.200;5.792;2023-09-18T09:18:12;19.00;99.90
53310;DHT22;39197;53.200;5.792;2023-09-18T09:20:41;19.00;99.90
53310;DHT22;39197;53.200;5.792;2023-09-18T09:23:09;19.10;99.90
53310;DHT22;39197;53.200;5.792;2023-09-18T09:25:35;19.10;99.90
53310;DHT22;39197;53.200;5.792;2023-09-18T09:28:03;19.10;99.90
53310;DHT22;39197;53.200;5.792;2023-09-18T09:30:31;19.20;99.90
53310;DHT22;39197;53.200;5.792;2023-09-18T09:32:58;19.30;99.90
53310;DHT22;39197;53.200;5.792;2023-09-18T09:35:36;19.30;99.90
53310;DHT22;39197;53.200;5.792;2023-09-18T09:38:08;19.40;99.90
53310;DHT22;39197;53.200;5.792;2023-09-18T09:40:35;19.50;99.90
53310;DHT22;39197;53.200;5.792;2023-09-18T09:43:03;19.60;99.90
53310;DHT22;39197;53.200;5.792;2023-09-18T09:45:31;19.60;99.90
53310;DHT22;39197;53.200;5.792;2023-09-18T09:48:02;19.80;99.90
53310;DHT22;39197;53.200;5.792;2023-09-18T09:50:29;19.90;99.90
53310;DHT22;39197;53.200;5.792;2023-09-18T09:52:55;19.90;99.90
53310;DHT22;39197;53.200;5.792;2023-09-18T09:55:22;20.10;99.90
53310;DHT22;39197;53.200;5.792;2023-09-18T09:57:51;20.20;99.90
53310;DHT22;39197;53.200;5.792;2023-09-18T10:00:17;20.20;99.90
53310;DHT22;39197;53.200;5.792;2023-09-18T10:03:03;20.20;99.90
53310;DHT22;39197;53.200;5.792;2023-09-18T10:05:31;20.30;99.90
53310;DHT22;39197;53.200;5.792;2023-09-18T10:07:59;20.40;99.90
53310;DHT22;39197;53.200;5.792;2023-09-18T10:10:33;20.40;99.90
53310;DHT22;39197;53.200;5.792;2023-09-18T10:13:05;20.40;99.90
53310;DHT22;39197;53.200;5.792;2023-09-18T10:15:34;20.30;99.90
53310;DHT22;39197;53.200;5.792;2023-09-18T10:18:05;20.40;99.90
53310;DHT22;39197;53.200;5.792;2023-09-18T10:20:38;20.60;99.90
53310;DHT22;39197;53.200;5.792;2023-09-18T10:23:47;20.70;99.90
53310;DHT22;39197;53.200;5.792;2023-09-18T10:26:05;20.90;99.90
53310;DHT22;39197;53.200;5.792;2023-09-18T10:28:31;21.20;99.90
53310;DHT22;39197;53.200;5.792;2023-09-18T10:30:58;21.20;99.90
53310;DHT22;39197;53.200;5.792;2023-09-18T10:33:25;21.40;99.90
53310;DHT22;39197;53.200;5.792;2023-09-18T10:35:52;21.60;99.90
53310;DHT22;39197;53.200;5.792;2023-09-18T10:38:19;21.50;99.90
53310;DHT22;39197;53.200;5.792;2023-09-18T10:40:47;21.20;99.90
53310;DHT22;39197;53.200;5.792;2023-09-18T10:43:15;21.00;99.90
53310;DHT22;39197;53.200;5.792;2023-09-18T10:45:41;20.90;99.90
53310;DHT22;39197;53.200;5.792;2023-09-18T10:48:08;20.80;99.90
53310;DHT22;39197;53.200;5.792;2023-09-18T10:50:35;20.80;99.90
53310;DHT22;39197;53.200;5.792;2023-09-18T10:53:00;21.00;99.90
53310;DHT22;39197;53.200;5.792;2023-09-18T10:55:26;21.80;99.90
53310;DHT22;39197;53.200;5.792;2023-09-18T10:57:53;22.50;99.90
53310;DHT22;39197;53.200;5.792;2023-09-18T11:00:21;23.00;99.90
53310;DHT22;39197;53.200;5.792;2023-09-18T11:03:09;23.50;99.90
53310;DHT22;39197;53.200;5.792;2023-09-18T11:05:35;24.10;99.90
53310;DHT22;39197;53.200;5.792;2023-09-18T11:08:29;24.40;99.90
53310;DHT22;39197;53.200;5.792;2023-09-18T11:11:08;24.40;99.90
53310;DHT22;39197;53.200;5.792;2023-09-18T11:13:42;24.50;99.90
53310;DHT22;39197;53.200;5.792;2023-09-18T11:21:29;24.00;99.90
53310;DHT22;39197;53.200;5.792;2023-09-18T11:24:03;23.60;99.90
53310;DHT22;39197;53.200;5.792;2023-09-18T11:26:35;23.10;99.90
53310;DHT22;39197;53.200;5.792;2023-09-18T11:29:05;22.90;99.90
53310;DHT22;39197;53.200;5.792;2023-09-18T11:31:48;22.80;99.90
53310;DHT22;39197;53.200;5.792;2023-09-18T11:34:26;22.60;99.90
53310;DHT22;39197;53.200;5.792;2023-09-18T11:36:54;22.70;99.90
53310;DHT22;39197;53.200;5.792;2023-09-18T11:39:41;22.70;99.90
53310;DHT22;39197;53.200;5.792;2023-09-18T11:42:22;22.70;99.90
53310;DHT22;39197;53.200;5.792;2023-09-18T11:44:49;22.90;99.90
53310;DHT22;39197;53.200;5.792;2023-09-18T11:47:19;22.50;99.90
53310;DHT22;39197;53.200;5.792;2023-09-18T11:49:59;22.30;99.90
53310;DHT22;39197;53.200;5.792;2023-09-18T11:52:26;22.30;99.90
53310;DHT22;39197;53.200;5.792;2023-09-18T11:54:53;22.60;99.90
53310;DHT22;39197;53.200;5.792;2023-09-18T11:57:20;23.10;99.90
53310;DHT22;39197;53.200;5.792;2023-09-18T11:59:46;23.10;99.90
53310;DHT22;39197;53.200;5.792;2023-09-18T12:02:32;23.20;99.90
53310;DHT22;39197;53.200;5.792;2023-09-18T12:05:19;23.30;99.90
53310;DHT22;39197;53.200;5.792;2023-09-18T12:07:46;23.00;99.90
53310;DHT22;39197;53.200;5.792;2023-09-18T12:10:16;22.80;99.90
53310;DHT22;39197;53.200;5.792;2023-09-18T12:12:46;23.00;99.90
53310;DHT22;39197;53.200;5.792;2023-09-18T12:15:13;22.90;99.90
53310;DHT22;39197;53.200;5.792;2023-09-18T12:17:40;22.90;99.90
53310;DHT22;39197;53.200;5.792;2023-09-18T12:20:06;22.70;99.90
53310;DHT22;39197;53.200;5.792;2023-09-18T12:22:32;22.70;99.90
53310;DHT22;39197;53.200;5.792;2023-09-18T12:25:14;22.40;99.90
53310;DHT22;39197;53.200;5.792;2023-09-18T12:27:40;22.30;99.90
53310;DHT22;39197;53.200;5.792;2023-09-18T12:30:07;22.50;99.90
53310;DHT22;39197;53.200;5.792;2023-09-18T12:32:38;22.90;99.90
53310;DHT22;39197;53.200;5.792;2023-09-18T12:35:06;23.10;99.90
53310;DHT22;39197;53.200;5.792;2023-09-18T12:37:41;23.40;99.90
53310;DHT22;39197;53.200;5.792;2023-09-18T12:40:28;23.20;99.90
53310;DHT22;39197;53.200;5.792;2023-09-18T12:42:56;22.80;99.90
53310;DHT22;39197;53.200;5.792;2023-09-18T12:45:25;22.40;99.90
53310;DHT22;39197;53.200;5.792;2023-09-18T12:47:51;22.40;99.90
53310;DHT22;39197;53.200;5.792;2023-09-18T12:50:17;22.10;99.90
53310;DHT22;39197;53.200;5.792;2023-09-18T12:52:43;22.10;99.90
53310;DHT22;39197;53.200;5.792;2023-09-18T12:55:21;22.00;99.90
53310;DHT22;39197;53.200;5.792;2023-09-18T12:57:47;21.70;99.90
53310;DHT22;39197;53.200;5.792;2023-09-18T13:00:16;21.60;99.90
53310;DHT22;39197;53.200;5.792;2023-09-18T13:02:45;21.70;99.90
53310;DHT22;39197;53.200;5.792;2023-09-18T13:05:11;22.00;99.90
53310;DHT22;39197;53.200;5.792;2023-09-18T13:07:46;22.10;99.90
53310;DHT22;39197;53.200;5.792;2023-09-18T13:10:13;21.90;99.90
53310;DHT22;39197;53.200;5.792;2023-09-18T13:12:47;21.70;99.90
53310;DHT22;39197;53.200;5.792;2023-09-18T13:15:15;21.60;99.90
53310;DHT22;39197;53.200;5.792;2023-09-18T13:17:49;21.50;99.90
53310;DHT22;39197;53.200;5.792;2023-09-18T13:20:25;21.50;99.90
53310;DHT22;39197;53.200;5.792;2023-09-18T13:22:53;21.30;99.90
53310;DHT22;39197;53.200;5.792;2023-09-18T13:25:20;21.10;99.90
53310;DHT22;39197;53.200;5.792;2023-09-18T13:27:47;21.10;99.90
53310;DHT22;39197;53.200;5.792;2023-09-18T13:30:13;21.00;99.90
53310;DHT22;39197;53.200;5.792;2023-09-18T13:32:42;20.80;99.90
53310;DHT22;39197;53.200;5.792;2023-09-18T13:35:09;20.50;99.90
53310;DHT22;39197;53.200;5.792;2023-09-18T13:37:37;20.40;99.90
53310;DHT22;39197;53.200;5.792;2023-09-18T13:40:05;20.20;99.90
53310;DHT22;39197;53.200;5.792;2023-09-18T13:42:35;20.10;99.90
53310;DHT22;39197;53.200;5.792;2023-09-18T13:45:01;19.70;99.90
53310;DHT22;39197;53.200;5.792;2023-09-18T13:47:27;19.30;99.90
53310;DHT22;39197;53.200;5.792;2023-09-18T13:49:53;19.10;99.90
53310;DHT22;39197;53.200;5.792;2023-09-18T13:52:23;18.70;99.90
53310;DHT22;39197;53.200;5.792;2023-09-18T13:54:48;18.30;99.90
53310;DHT22;39197;53.200;5.792;2023-09-18T13:57:17;18.00;99.90
53310;DHT22;39197;53.200;5.792;2023-09-18T13:59:47;17.80;99.90
53310;DHT22;39197;53.200;5.792;2023-09-18T14:02:14;17.60;99.90
53310;DHT22;39197;53.200;5.792;2023-09-18T14:04:40;17.60;99.90
53310;DHT22;39197;53.200;5.792;2023-09-18T14:07:10;17.60;99.90
53310;DHT22;39197;53.200;5.792;2023-09-18T14:09:37;17.70;99.90
53310;DHT22;39197;53.200;5.792;2023-09-18T14:12:03;17.70;99.90
53310;DHT22;39197;53.200;5.792;2023-09-18T14:14:29;17.80;99.90
53310;DHT22;39197;53.200;5.792;2023-09-18T14:16:54;17.90;99.90
53310;DHT22;39197;53.200;5.792;2023-09-18T14:19:21;17.90;99.90
53310;DHT22;39197;53.200;5.792;2023-09-18T14:21:46;18.00;99.90
53310;DHT22;39197;53.200;5.792;2023-09-18T14:24:15;17.80;99.90
53310;DHT22;39197;53.200;5.792;2023-09-18T14:26:43;17.60;99.90
53310;DHT22;39197;53.200;5.792;2023-09-18T14:29:10;17.50;99.90
53310;DHT22;39197;53.200;5.792;2023-09-18T14:31:39;17.50;99.90
53310;DHT22;39197;53.200;5.792;2023-09-18T14:34:05;17.50;99.90
53310;DHT22;39197;53.200;5.792;2023-09-18T14:36:32;17.70;99.90
53310;DHT22;39197;53.200;5.792;2023-09-18T14:38:59;17.70;99.90
53310;DHT22;39197;53.200;5.792;2023-09-18T14:41:26;17.70;99.90
53310;DHT22;39197;53.200;5.792;2023-09-18T14:43:52;17.70;99.90
53310;DHT22;39197;53.200;5.792;2023-09-18T14:46:17;17.60;99.90
53310;DHT22;39197;53.200;5.792;2023-09-18T14:48:43;17.60;99.90
53310;DHT22;39197;53.200;5.792;2023-09-18T14:51:09;17.60;99.90
53310;DHT22;39197;53.200;5.792;2023-09-18T14:53:34;17.80;99.90
53310;DHT22;39197;53.200;5.792;2023-09-18T14:56:00;17.90;99.90
53310;DHT22;39197;53.200;5.792;2023-09-18T14:58:26;18.30;99.90
53310;DHT22;39197;53.200;5.792;2023-09-18T15:00:53;18.80;99.90
53310;DHT22;39197;53.200;5.792;2023-09-18T15:03:18;19.30;99.90
53310;DHT22;39197;53.200;5.792;2023-09-18T15:05:44;19.60;99.90
53310;DHT22;39197;53.200;5.792;2023-09-18T15:08:10;19.80;99.90
53310;DHT22;39197;53.200;5.792;2023-09-18T15:10:37;20.00;99.90
53310;DHT22;39197;53.200;5.792;2023-09-18T15:13:03;20.10;99.90
53310;DHT22;39197;53.200;5.792;2023-09-18T15:15:28;20.10;99.90
53310;DHT22;39197;53.200;5.792;2023-09-18T15:17:54;19.90;99.90
53310;DHT22;39197;53.200;5.792;2023-09-18T15:20:20;20.00;99.90
53310;DHT22;39197;53.200;5.792;2023-09-18T15:22:49;19.90;99.90
53310;DHT22;39197;53.200;5.792;2023-09-18T15:25:15;19.80;99.90
53310;DHT22;39197;53.200;5.792;2023-09-18T15:27:42;19.90;99.90
53310;DHT22;39197;53.200;5.792;2023-09-18T15:30:08;19.80;99.90
53310;DHT22;39197;53.200;5.792;2023-09-18T15:33:06;19.80;99.90
53310;DHT22;39197;53.200;5.792;2023-09-18T15:35:31;19.80;99.90
53310;DHT22;39197;53.200;5.792;2023-09-18T15:37:57;19.80;99.90
53310;DHT22;39197;53.200;5.792;2023-09-18T15:40:23;19.80;99.90